Time;durP1;ratioP1;P1;durP2;ratioP2;P2;SDS_P1;SDS_P2;PMS_P1;PMS_P2;Temp;Humidity;BMP_temperature;BMP_pressure;BME280_temperature;BME280_humidity;BME280_pressure;Samples;Min_cycle;Max_cycle;Signal;HPM_P1;HPM_P2
2022/01/19 00:00:25;;;;;;;10.77;7.18;;;;;;;;;;5061782;28;20298;-83
2022/01/19 00:02:52;;;;;;;8.98;6.60;;;;;;;;;;5061483;28;20251;-83
2022/01/19 00:05:20;;;;;;;8.60;6.38;;;;;;;;;;5058734;28;20668;-83
2022/01/19 00:07:47;;;;;;;11.10;7.18;;;;;;;;;;5060127;28;20205;-83
2022/01/19 00:10:19;;;;;;;8.45;6.00;;;;;;;;;;5059979;28;20695;-83
2022/01/19 00:12:46;;;;;;;13.73;7.65;;;;;;;;;;5057334;28;20729;-83
2022/01/19 00:15:14;;;;;;;9.68;7.10;;;;;;;;;;5061015;28;20207;-83
2022/01/19 00:17:41;;;;;;;10.77;6.70;;;;;;;;;;5054635;28;20243;-83
2022/01/19 00:20:09;;;;;;;9.05;6.70;;;;;;;;;;5060877;28;20284;-83
2022/01/19 00:22:37;;;;;;;7.93;6.30;;;;;;;;;;5058465;28;20224;-83
2022/01/19 00:25:06;;;;;;;11.68;8.10;;;;;;;;;;5059046;28;20230;-83
2022/01/19 00:27:34;;;;;;;13.95;9.18;;;;;;;;;;5060085;28;20200;-83
2022/01/19 00:30:01;;;;;;;11.40;7.25;;;;;;;;;;5058202;28;20208;-83
2022/01/19 00:32:29;;;;;;;19.35;7.90;;;;;;;;;;5061196;28;20292;-83
2022/01/19 00:34:56;;;;;;;9.93;7.38;;;1.00;99.90;;;;;;5053181;28;20291;-83
2022/01/19 00:37:24;;;;;;;14.55;7.80;;;;;;;;;;5060431;28;20227;-83
2022/01/19 00:39:51;;;;;;;10.82;7.95;;;;;;;;;;5058622;28;20291;-83
2022/01/19 00:42:18;;;;;;;9.25;8.05;;;;;;;;;;5059653;28;20230;-83
2022/01/19 00:44:47;;;;;;;9.77;7.00;;;0.80;99.90;;;;;;5058769;28;20203;-83
2022/01/19 00:47:14;;;;;;;12.90;8.23;;;;;;;;;;5058376;28;20264;-84
2022/01/19 00:49:42;;;;;;;9.95;7.28;;;;;;;;;;5059329;28;20235;-83
2022/01/19 00:52:10;;;;;;;10.75;6.90;;;;;;;;;;5057525;28;20204;-83
2022/01/19 00:54:37;;;;;;;8.32;7.53;;;;;;;;;;5052919;28;20658;-83
2022/01/19 00:57:04;;;;;;;15.07;8.63;;;;;;;;;;5057578;28;20228;-83
2022/01/19 00:59:32;;;;;;;10.30;8.25;;;;;;;;;;5059636;28;20288;-84
2022/01/19 01:02:00;;;;;;;9.63;7.15;;;0.60;99.90;;;;;;5060552;28;20203;-84
2022/01/19 01:04:28;;;;;;;10.63;7.97;;;;;;;;;;5057990;28;20789;-84
2022/01/19 01:06:56;;;;;;;8.10;6.60;;;;;;;;;;5058344;28;20295;-84
2022/01/19 01:09:24;;;;;;;11.38;7.65;;;;;;;;;;5060505;28;20211;-84
2022/01/19 01:12:00;;;;;;;13.10;7.60;;;;;;;;;;5055345;28;20238;-83
2022/01/19 01:19:59;;;;;;;11.38;8.20;;;;;;;;;;5056813;28;20208;-84
2022/01/19 01:22:27;;;;;;;12.98;7.40;;;;;;;;;;5052703;28;20283;-84
2022/01/19 01:24:55;;;;;;;11.40;8.68;;;;;;;;;;5059098;28;20250;-84
2022/01/19 01:27:23;;;;;;;10.27;7.13;;;;;;;;;;5057211;28;20208;-84
2022/01/19 01:29:52;;;;;;;11.80;7.20;;;;;;;;;;5058510;28;20296;-84
2022/01/19 01:32:20;;;;;;;12.85;8.75;;;;;;;;;;5058971;28;20204;-84
2022/01/19 01:34:48;;;;;;;12.32;7.50;;;;;;;;;;5056822;28;20196;-84
2022/01/19 01:37:15;;;;;;;10.20;6.85;;;;;;;;;;5059955;28;20245;-84
2022/01/19 01:39:42;;;;;;;12.98;7.55;;;;;;;;;;5056050;28;20200;-84
2022/01/19 01:42:10;;;;;;;13.80;9.10;;;;;;;;;;5052976;28;20262;-84
2022/01/19 01:44:38;;;;;;;10.75;8.80;;;;;;;;;;5058703;28;20230;-84
2022/01/19 01:47:05;;;;;;;13.70;7.82;;;;;;;;;;5057551;28;20204;-84
2022/01/19 01:49:46;;;;;;;11.63;8.02;;;;;;;;;;5058373;28;20901;-84
2022/01/19 01:55:05;;;;;;;13.15;8.30;;;0.50;99.90;;;;;;5038398;28;20219;-84
2022/01/19 01:57:33;;;;;;;10.20;7.18;;;;;;;;;;5055467;28;20204;-84
2022/01/19 02:00:05;;;;;;;12.68;7.72;;;0.50;99.90;;;;;;5058471;28;20207;-84
2022/01/19 02:02:36;;;;;;;11.32;8.38;;;;;;;;;;5055250;28;20205;-84
2022/01/19 02:05:08;;;;;;;11.45;7.70;;;;;;;;;;5058982;28;20272;-84
2022/01/19 02:07:47;;;;;;;11.00;8.02;;;;;;;;;;5053027;28;20214;-84
2022/01/19 02:10:31;;;;;;;19.60;11.52;;;0.70;99.90;;;;;;5057901;28;20223;-84
2022/01/19 02:15:53;;;;;;;16.27;9.52;;;;;;;;;;5051959;28;20298;-84
2022/01/19 02:23:51;;;;;;;9.60;8.50;;;;;;;;;;5046874;28;20235;-84
2022/01/19 02:26:25;;;;;;;19.23;10.10;;;;;;;;;;5052216;28;20211;-84
2022/01/19 02:29:03;;;;;;;15.75;10.50;;;;;;;;;;5055890;28;20275;-84
2022/01/19 02:40:11;;;;;;;12.43;8.63;;;;;;;;;;5032714;28;20208;-84
2022/01/19 02:42:51;;;;;;;12.05;9.07;;;0.50;99.90;;;;;;5052444;28;20286;-84
2022/01/19 02:50:44;;;;;;;11.98;8.70;;;;;;;;;;5055971;28;20721;-84
2022/01/19 02:53:13;;;;;;;15.55;9.38;;;;;;;;;;5052591;28;20196;-84
2022/01/19 02:55:40;;;;;;;16.92;8.70;;;;;;;;;;5057901;28;20222;-84
2022/01/19 02:58:07;;;;;;;13.70;8.25;;;;;;;;;;5055428;28;20644;-84
2022/01/19 03:08:54;;;;;;;14.27;9.02;;;;;;;;;;5039195;28;20226;-84
2022/01/19 03:11:23;;;;;;;15.63;10.50;;;0.60;99.90;;;;;;5054560;28;20208;-84
2022/01/19 03:13:50;;;;;;;14.38;8.75;;;;;;;;;;5057620;28;20215;-84
2022/01/19 03:16:18;;;;;;;12.38;8.40;;;;;;;;;;5061545;28;20242;-84
2022/01/19 03:18:45;;;;;;;12.68;8.73;;;;;;;;;;5060107;28;20208;-84
2022/01/19 03:21:13;;;;;;;12.88;8.30;;;;;;;;;;5061157;28;20223;-83
2022/01/19 03:23:40;;;;;;;13.05;8.35;;;;;;;;;;5060705;28;20232;-84
2022/01/19 03:26:08;;;;;;;11.75;8.02;;;;;;;;;;5059302;28;20302;-84
2022/01/19 03:28:36;;;;;;;15.85;9.98;;;;;;;;;;5062326;28;20234;-84
2022/01/19 03:31:03;;;;;;;12.45;9.07;;;;;;;;;;5059037;28;20239;-83
2022/01/19 03:33:30;;;;;;;11.93;7.82;;;;;;;;;;5055072;28;20301;-84
2022/01/19 03:35:57;;;;;;;13.32;8.80;;;;;;;;;;5061240;28;20653;-84
2022/01/19 03:38:25;;;;;;;14.77;9.07;;;;;;;;;;5059499;28;20283;-84
2022/01/19 03:40:52;;;;;;;13.68;9.32;;;;;;;;;;5060948;28;20231;-84
2022/01/19 03:43:20;;;;;;;13.07;8.32;;;0.40;99.90;;;;;;5060374;28;20230;-84
2022/01/19 03:45:52;;;;;;;11.93;8.82;;;;;;;;;;5059195;28;21166;-84
2022/01/19 03:48:34;;;;;;;11.63;8.05;;;;;;;;;;5062302;28;20296;-84
2022/01/19 03:51:01;;;;;;;15.00;8.90;;;;;;;;;;5058302;28;20257;-84
2022/01/19 03:53:28;;;;;;;12.38;9.63;;;;;;;;;;5059689;28;20240;-84
2022/01/19 03:55:56;;;;;;;11.73;8.13;;;;;;;;;;5061063;28;20315;-84
2022/01/19 03:58:24;;;;;;;16.95;8.35;;;0.20;99.90;;;;;;5058222;28;20286;-84
2022/01/19 04:00:57;;;;;;;15.80;9.80;;;;;;;;;;5054890;28;20235;-84
2022/01/19 04:03:42;;;;;;;12.40;9.20;;;;;;;;;;5056292;28;20216;-84
2022/01/19 04:06:18;;;;;;;14.40;9.20;;;;;;;;;;5054356;28;20200;-84
2022/01/19 04:08:45;;;;;;;10.10;8.02;;;;;;;;;;5060124;28;20238;-84
2022/01/19 04:11:13;;;;;;;13.40;8.48;;;;;;;;;;5060641;28;20298;-84
2022/01/19 04:13:59;;;;;;;15.80;9.00;;;;;;;;;;5057246;28;20216;-84
2022/01/19 04:16:26;;;;;;;8.77;7.88;;;;;;;;;;5057961;28;20289;-84
2022/01/19 04:19:02;;;;;;;13.52;9.25;;;;;;;;;;5058983;28;20215;-84
2022/01/19 04:21:29;;;;;;;15.52;9.15;;;;;;;;;;5054673;28;20257;-84
2022/01/19 04:23:57;;;;;;;9.65;7.65;;;;;;;;;;5060128;28;20289;-84
2022/01/19 04:26:24;;;;;;;13.43;8.73;;;;;;;;;;5057890;28;20231;-84
2022/01/19 04:28:52;;;;;;;15.10;9.45;;;;;;;;;;5060049;28;20234;-84
2022/01/19 04:31:20;;;;;;;12.23;8.23;;;;;;;;;;5059919;28;20204;-85
2022/01/19 04:33:47;;;;;;;16.98;9.98;;;;;;;;;;5060086;28;20282;-84
2022/01/19 04:36:27;;;;;;;13.35;7.95;;;;;;;;;;5060575;28;20207;-84
2022/01/19 04:39:22;;;;;;;15.40;10.38;;;;;;;;;;5055697;28;20231;-85
2022/01/19 04:44:53;;;;;;;18.13;12.65;;;;;;;;;;5053593;28;20235;-85
2022/01/19 05:04:06;;;;;;;13.57;9.63;;;;;;;;;;5056451;28;20318;-84
2022/01/19 05:06:38;;;;;;;13.05;9.43;;;;;;;;;;5057477;28;20211;-85
2022/01/19 05:09:10;;;;;;;15.35;8.45;;;;;;;;;;5057944;28;20464;-85
2022/01/19 05:14:22;;;;;;;14.15;10.48;;;;;;;;;;5053292;28;20307;-85
2022/01/19 05:16:51;;;;;;;12.85;8.77;;;;;;;;;;5059480;28;20226;-84
2022/01/19 05:19:18;;;;;;;14.52;9.73;;;;;;;;;;5058743;28;20307;-84
2022/01/19 05:21:45;;;;;;;16.20;10.90;;;;;;;;;;5058536;28;20230;-85
2022/01/19 05:24:12;;;;;;;11.40;8.70;;;;;;;;;;5058913;28;20587;-84
2022/01/19 05:26:39;;;;;;;17.17;11.40;;;;;;;;;;5057427;28;20294;-85
2022/01/19 05:29:07;;;;;;;15.77;10.35;;;;;;;;;;5059687;28;20246;-84
2022/01/19 05:31:34;;;;;;;12.60;9.32;;;;;;;;;;5053102;28;20204;-85
2022/01/19 05:34:03;;;;;;;11.00;9.45;;;-0.30;99.90;;;;;;5059313;28;20211;-84
2022/01/19 05:36:30;;;;;;;14.85;9.60;;;;;;;;;;5057496;28;20779;-85
2022/01/19 05:38:57;;;;;;;13.98;9.40;;;;;;;;;;5058713;28;20226;-85
2022/01/19 05:41:24;;;;;;;12.40;8.05;;;;;;;;;;5057973;28;20214;-85
2022/01/19 05:43:51;;;;;;;13.32;9.30;;;;;;;;;;5057639;28;20235;-84
2022/01/19 05:46:19;;;;;;;18.13;10.45;;;;;;;;;;5059436;28;20260;-85
2022/01/19 05:48:46;;;;;;;14.88;10.63;;;;;;;;;;5056976;28;20200;-85
2022/01/19 05:51:14;;;;;;;15.93;10.63;;;;;;;;;;5060222;28;20254;-85
2022/01/19 05:53:42;;;;;;;14.38;9.77;;;;;;;;;;5056847;28;20236;-85
2022/01/19 05:56:09;;;;;;;14.77;10.10;;;;;;;;;;5058162;28;20294;-84
2022/01/19 05:58:36;;;;;;;17.15;9.23;;;;;;;;;;5056478;28;20737;-85
2022/01/19 06:01:03;;;;;;;14.02;9.80;;;;;;;;;;5056635;28;20553;-85
2022/01/19 06:03:30;;;;;;;13.60;8.70;;;;;;;;;;5058548;28;20299;-85
2022/01/19 06:05:58;;;;;;;14.07;9.15;;;;;;;;;;5056524;28;20236;-84
2022/01/19 06:08:42;;;;;;;14.82;11.07;;;;;;;;;;5059152;28;20707;-85
2022/01/19 06:11:13;;;;;;;14.55;9.57;;;;;;;;;;5056544;28;20210;-85
2022/01/19 06:13:41;;;;;;;14.52;8.77;;;;;;;;;;5055660;28;20254;-85
2022/01/19 06:16:08;;;;;;;17.80;11.18;;;;;;;;;;5059588;28;20617;-84
2022/01/19 06:18:35;;;;;;;16.92;10.50;;;;;;;;;;5056807;28;20642;-85
2022/01/19 06:21:02;;;;;;;16.83;11.10;;;;;;;;;;5058725;28;20729;-85
2022/01/19 06:23:30;;;;;;;13.20;10.60;;;0.20;99.90;;;;;;5056870;28;20643;-85
2022/01/19 06:25:57;;;;;;;14.70;9.95;;;;;;;;;;5057982;28;20238;-84
2022/01/19 06:28:25;;;;;;;16.92;10.10;;;;;;;;;;5057963;28;20207;-85
2022/01/19 06:30:52;;;;;;;15.98;9.43;;;;;;;;;;5057381;28;20235;-84
2022/01/19 06:33:19;;;;;;;17.02;10.82;;;;;;;;;;5059108;28;20234;-85
2022/01/19 06:35:46;;;;;;;12.20;8.20;;;;;;;;;;5055563;28;20242;-84
2022/01/19 06:38:13;;;;;;;18.92;9.90;;;;;;;;;;5059316;28;20707;-84
2022/01/19 06:40:42;;;;;;;18.45;10.80;;;;;;;;;;5052289;28;20710;-84
2022/01/19 06:43:09;;;;;;;15.88;10.40;;;;;;;;;;5059186;28;20297;-84
2022/01/19 06:45:36;;;;;;;14.18;9.65;;;;;;;;;;5055932;28;20750;-85
2022/01/19 06:48:03;;;;;;;15.13;10.15;;;;;;;;;;5058134;28;20631;-84
2022/01/19 06:50:31;;;;;;;14.85;9.98;;;;;;;;;;5061546;28;20308;-85
2022/01/19 06:52:59;;;;;;;13.32;9.10;;;;;;;;;;5060907;28;20211;-84
2022/01/19 06:55:26;;;;;;;13.65;8.45;;;;;;;;;;5062000;28;20257;-84
2022/01/19 06:57:54;;;;;;;10.68;8.60;;;-0.20;99.90;;;;;;5059293;28;20732;-85
2022/01/19 07:00:21;;;;;;;12.27;8.30;;;;;;;;;;5055349;28;20203;-84
2022/01/19 07:02:48;;;;;;;11.70;8.40;;;;;;;;;;5058763;28;20223;-84
2022/01/19 07:05:15;;;;;;;12.60;9.57;;;;;;;;;;5061526;28;20321;-84
2022/01/19 07:07:43;;;;;;;13.90;8.65;;;;;;;;;;5060824;28;20293;-84
2022/01/19 07:10:10;;;;;;;12.18;8.70;;;;;;;;;;5061409;28;20299;-84
2022/01/19 07:12:38;;;;;;;13.25;9.10;;;;;;;;;;5060597;28;20259;-84
2022/01/19 07:15:07;;;;;;;14.25;8.80;;;-0.50;99.90;;;;;;5059280;28;20395;-84
2022/01/19 07:17:35;;;;;;;12.82;8.60;;;;;;;;;;5062583;28;20287;-85
2022/01/19 07:20:02;;;;;;;14.10;8.32;;;;;;;;;;5055267;28;20203;-84
2022/01/19 07:22:30;;;;;;;13.05;8.95;;;;;;;;;;5062749;28;20235;-84
2022/01/19 07:24:58;;;;;;;15.27;9.23;;;;;;;;;;5059280;28;20314;-84
2022/01/19 07:27:25;;;;;;;15.20;10.80;;;;;;;;;;5061150;28;20294;-84
2022/01/19 07:29:53;;;;;;;14.25;9.15;;;;;;;;;;5060395;28;20204;-84
2022/01/19 07:32:23;;;;;;;14.07;10.32;;;;;;;;;;5060210;28;20358;-84
2022/01/19 07:34:50;;;;;;;13.10;8.80;;;;;;;;;;5061522;28;20750;-84
2022/01/19 07:37:17;;;;;;;19.00;9.30;;;;;;;;;;5058901;28;20200;-85
2022/01/19 07:39:44;;;;;;;19.08;10.05;;;;;;;;;;5055382;28;20242;-85
2022/01/19 07:42:12;;;;;;;12.13;8.63;;;;;;;;;;5061392;28;20620;-85
2022/01/19 07:44:39;;;;;;;11.32;9.73;;;;;;;;;;5059161;28;20281;-84
2022/01/19 07:47:06;;;;;;;20.58;9.43;;;;;;;;;;5060892;28;20816;-84
2022/01/19 07:49:35;;;;;;;14.55;9.82;;;;;;;;;;5060551;28;20257;-85
2022/01/19 07:52:02;;;;;;;17.45;10.55;;;;;;;;;;5059530;28;20261;-84
2022/01/19 07:54:29;;;;;;;13.10;10.00;;;;;;;;;;5060951;28;20264;-85
2022/01/19 07:56:57;;;;;;;13.25;9.43;;;;;;;;;;5058036;28;20630;-84
2022/01/19 07:59:24;;;;;;;13.55;10.73;;;;;;;;;;5053975;28;20293;-85
2022/01/19 08:01:53;;;;;;;14.50;9.55;;;;;;;;;;5058260;28;20279;-84
2022/01/19 08:04:20;;;;;;;18.02;10.13;;;;;;;;;;5059968;28;20211;-84
2022/01/19 08:06:54;;;;;;;13.45;9.57;;;;;;;;;;5059724;28;20244;-83
2022/01/19 08:09:21;;;;;;;12.63;9.85;;;;;;;;;;5058914;28;20211;-83
2022/01/19 08:11:48;;;;;;;15.05;9.35;;;;;;;;;;5060664;28;20223;-83
2022/01/19 08:14:16;;;;;;;14.82;10.18;;;;;;;;;;5057219;28;20208;-83
2022/01/19 08:16:43;;;;;;;22.58;11.70;;;0.30;99.90;;;;;;5061295;28;20211;-84
2022/01/19 08:19:10;;;;;;;16.80;10.45;;;;;;;;;;5058491;28;20224;-83
2022/01/19 08:21:37;;;;;;;20.20;11.10;;;;;;;;;;5060306;28;20295;-83
2022/01/19 08:24:06;;;;;;;18.15;11.35;;;0.40;99.90;;;;;;5058437;28;20228;-83
2022/01/19 08:26:34;;;;;;;16.08;11.68;;;;;;;;;;5059180;28;20324;-84
2022/01/19 08:29:01;;;;;;;23.20;11.88;;;;;;;;;;5060556;28;20211;-84
2022/01/19 08:31:28;;;;;;;25.50;11.63;;;;;;;;;;5057979;28;20277;-83
2022/01/19 08:33:55;;;;;;;16.05;10.95;;;;;;;;;;5060768;28;20234;-83
2022/01/19 08:36:23;;;;;;;16.23;11.30;;;;;;;;;;5053377;28;20232;-83
2022/01/19 08:38:51;;;;;;;19.10;12.32;;;0.70;99.90;;;;;;5060670;28;20230;-83
2022/01/19 08:41:19;;;;;;;19.42;12.88;;;;;;;;;;5058740;28;20207;-84
2022/01/19 08:43:47;;;;;;;19.10;12.35;;;;;;;;;;5059531;28;20233;-84
2022/01/19 08:46:14;;;;;;;19.27;13.10;;;;;;;;;;5059027;28;20304;-84
2022/01/19 08:48:41;;;;;;;18.45;11.63;;;;;;;;;;5058079;28;20204;-84
2022/01/19 08:51:09;;;;;;;20.90;12.10;;;;;;;;;;5059901;28;20272;-84
2022/01/19 08:53:36;;;;;;;20.92;14.00;;;;;;;;;;5057672;28;20616;-84
2022/01/19 08:56:03;;;;;;;18.98;12.23;;;;;;;;;;5053045;28;20257;-84
2022/01/19 08:58:32;;;;;;;19.80;11.68;;;;;;;;;;5057097;28;20346;-84
2022/01/19 09:00:59;;;;;;;16.38;11.77;;;;;;;;;;5059792;28;20207;-84
2022/01/19 09:03:26;;;;;;;13.48;10.57;;;;;;;;;;5056589;28;20259;-84
2022/01/19 09:05:53;;;;;;;14.65;9.73;;;;;;;;;;5058647;28;20235;-84
2022/01/19 09:08:21;;;;;;;16.63;12.50;;;;;;;;;;5058189;28;20204;-84
2022/01/19 09:10:50;;;;;;;19.55;11.27;;;;;;;;;;5059615;28;20213;-84
2022/01/19 09:13:17;;;;;;;15.57;10.30;;;;;;;;;;5056030;28;20625;-84
2022/01/19 09:15:46;;;;;;;18.45;11.88;;;1.60;99.90;;;;;;5059733;28;20210;-84
2022/01/19 09:18:13;;;;;;;18.10;11.00;;;;;;;;;;5057273;28;20214;-84
2022/01/19 09:20:40;;;;;;;19.10;12.18;;;;;;;;;;5059225;28;20211;-83
2022/01/19 09:23:08;;;;;;;15.68;10.63;;;;;;;;;;5058276;28;20302;-83
2022/01/19 09:25:35;;;;;;;13.65;9.95;;;;;;;;;;5057417;28;20233;-83
2022/01/19 09:28:03;;;;;;;17.23;10.73;;;;;;;;;;5059254;28;20264;-83
2022/01/19 09:30:30;;;;;;;16.45;10.63;;;;;;;;;;5056804;28;20276;-83
2022/01/19 09:33:07;;;;;;;16.08;10.35;;;2.20;99.90;;;;;;5060197;28;20265;-83
2022/01/19 09:35:50;;;;;;;15.23;10.13;;;;;;;;;;5058142;28;20199;-83
2022/01/19 09:38:18;;;;;;;17.05;11.30;;;;;;;;;;5052722;28;20210;-83
2022/01/19 09:40:45;;;;;;;18.23;10.30;;;;;;;;;;5060045;28;20211;-83
2022/01/19 09:43:12;;;;;;;14.02;10.23;;;;;;;;;;5057379;28;20759;-82
2022/01/19 09:45:40;;;;;;;11.48;9.35;;;;;;;;;;5057904;28;20239;-83
2022/01/19 09:48:09;;;;;;;13.40;9.60;;;;;;;;;;5058421;28;20214;-83
2022/01/19 09:50:36;;;;;;;17.35;9.90;;;;;;;;;;5057063;28;20208;-83
2022/01/19 09:53:05;;;;;;;15.52;10.85;;;2.60;99.90;;;;;;5059411;28;20237;-83
2022/01/19 09:55:32;;;;;;;15.10;10.65;;;;;;;;;;5054916;28;20211;-82
2022/01/19 09:57:59;;;;;;;11.60;8.65;;;;;;;;;;5056478;28;20204;-83
2022/01/19 10:00:27;;;;;;;16.25;10.20;;;;;;;;;;5059399;28;20664;-83
2022/01/19 10:03:14;;;;;;;13.52;9.70;;;;;;;;;;5056766;28;20199;-83
2022/01/19 10:06:02;;;;;;;18.70;10.05;;;2.80;99.90;;;;;;5052525;28;20242;-83
2022/01/19 10:08:35;;;;;;;13.65;8.77;;;2.90;99.90;;;;;;5056101;28;20265;-83
2022/01/19 10:11:19;;;;;;;16.05;9.35;;;3.00;99.90;;;;;;5058620;28;20210;-83
2022/01/19 10:19:22;;;;;;;17.00;10.50;;;3.30;99.90;;;;;;5056224;28;20216;-83
2022/01/19 10:21:57;;;;;;;13.20;9.80;;;3.20;99.90;;;;;;5057063;28;20212;-83
2022/01/19 10:24:33;;;;;;;15.95;9.93;;;;;;;;;;5055865;28;20211;-83
2022/01/19 10:27:32;;;;;;;17.75;11.68;;;3.40;99.90;;;;;;5061250;28;20231;-83
2022/01/19 10:30:18;;;;;;;15.88;11.45;;;3.30;99.90;;;;;;5061927;28;20209;-83
2022/01/19 10:32:49;;;;;;;9.82;8.30;;;3.30;99.90;;;;;;5059918;28;20260;-83
2022/01/19 10:35:24;;;;;;;15.80;10.23;;;3.30;99.90;;;;;;5059433;28;20211;-83
2022/01/19 10:38:09;;;;;;;14.00;9.80;;;3.40;99.90;;;;;;5056897;28;20199;-83
2022/01/19 10:40:36;;;;;;;11.85;9.90;;;3.50;99.70;;;;;;5060010;28;20208;-83
2022/01/19 10:43:24;;;;;;;11.70;10.50;;;3.60;99.90;;;;;;5063318;28;20207;-83
2022/01/19 10:45:52;;;;;;;13.35;8.43;;;;;;;;;;5062160;28;20243;-83
2022/01/19 10:48:30;;;;;;;15.75;10.45;;;;;;;;;;5059632;28;20203;-82
2022/01/19 10:51:12;;;;;;;13.95;9.27;;;3.70;99.90;;;;;;5059045;28;20611;-82
2022/01/19 10:53:41;;;;;;;15.80;9.55;;;3.70;99.40;;;;;;5056020;28;20306;-82
2022/01/19 10:56:08;;;;;;;13.63;9.40;;;;;;;;;;5061128;28;20761;-83
2022/01/19 10:58:54;;;;;;;12.25;9.45;;;3.80;99.90;;;;;;5059692;28;20207;-83
2022/01/19 11:01:34;;;;;;;14.68;10.73;;;3.90;99.90;;;;;;5055844;28;20211;-82
2022/01/19 11:04:23;;;;;;;10.52;9.25;;;3.90;99.90;;;;;;5061419;28;20312;-82
2022/01/19 11:06:53;;;;;;;12.07;8.80;;;3.90;99.70;;;;;;5059350;28;20701;-82
2022/01/19 11:09:24;;;;;;;14.38;9.57;;;;;;;;;;5060433;28;20546;-82
2022/01/19 11:11:51;;;;;;;15.35;8.80;;;;;;;;;;5062058;28;20222;-82
2022/01/19 11:14:19;;;;;;;13.88;8.75;;;;;;;;;;5058881;28;20246;-82
2022/01/19 11:16:47;;;;;;;13.23;9.30;;;;;;;;;;5061626;28;20752;-82
2022/01/19 11:19:15;;;;;;;13.25;9.38;;;;;;;;;;5060575;28;20200;-82
2022/01/19 11:22:04;;;;;;;12.93;8.70;;;4.20;99.50;;;;;;5060775;28;20254;-82
2022/01/19 11:24:41;;;;;;;10.45;8.35;;;4.20;99.40;;;;;;5057032;28;20669;-82
2022/01/19 11:27:08;;;;;;;7.97;6.70;;;4.30;98.40;;;;;;5059207;28;20232;-82
2022/01/19 11:29:38;;;;;;;8.80;7.20;;;4.40;98.60;;;;;;5062513;28;20294;-83
2022/01/19 11:32:16;;;;;;;9.75;7.75;;;4.60;98.80;;;;;;5056108;28;20275;-83
2022/01/19 11:34:46;;;;;;;10.30;8.52;;;4.50;98.20;;;;;;5059027;28;20246;-82
2022/01/19 11:37:16;;;;;;;9.63;6.90;;;;;;;;;;5062148;28;20213;-82
2022/01/19 11:40:18;;;;;;;9.48;7.47;;;4.60;95.10;;;;;;5054651;28;20295;-82
2022/01/19 11:42:46;;;;;;;8.75;6.70;;;;;;;;;;4997803;28;20217;-83
2022/01/19 11:45:38;;;;;;;10.07;6.68;;;4.90;97.10;;;;;;4997486;28;20248;-82
2022/01/19 11:48:15;;;;;;;6.65;5.93;;;;;;;;;;5034453;28;20270;-82
2022/01/19 11:50:43;;;;;;;11.25;5.85;;;;;;;;;;5058614;28;20487;-83
2022/01/19 11:53:12;;;;;;;11.25;6.60;;;;;;;;;;5054877;28;20204;-83
2022/01/19 11:55:40;;;;;;;9.60;6.45;;;5.10;96.20;;;;;;5060510;28;20288;-83
2022/01/19 11:58:20;;;;;;;6.97;6.05;;;5.30;96.70;;;;;;5058024;28;20257;-83
2022/01/19 12:00:48;;;;;;;11.45;6.72;;;;;;;;;;5061583;28;20235;-83
2022/01/19 12:03:21;;;;;;;7.93;6.22;;;5.40;96.60;;;;;;5057595;28;20298;-82
2022/01/19 12:05:51;;;;;;;8.93;5.95;;;5.20;96.10;;;;;;5059048;28;20204;-83
2022/01/19 12:08:27;;;;;;;11.10;6.45;;;5.40;97.10;;;;;;5059596;28;20226;-83
2022/01/19 12:10:57;;;;;;;12.05;8.50;;;;;;;;;;5053938;28;20207;-82
2022/01/19 12:13:56;;;;;;;17.23;9.73;;;5.30;97.50;;;;;;5060325;28;20327;-82
2022/01/19 12:16:33;;;;;;;17.00;10.90;;;5.10;98.00;;;;;;5057424;28;20681;-83
2022/01/19 12:19:03;;;;;;;13.15;9.52;;;4.80;98.30;;;;;;5058755;28;20211;-82
2022/01/19 12:21:38;;;;;;;13.68;10.65;;;;;;;;;;5054184;28;20207;-82
2022/01/19 12:24:25;;;;;;;15.38;10.90;;;4.70;99.80;;;;;;5059012;28;20228;-82
2022/01/19 12:26:59;;;;;;;15.32;11.10;;;;;;;;;;5056023;28;20232;-82
2022/01/19 12:29:46;;;;;;;13.77;10.77;;;4.70;96.40;;;;;;5059095;28;20249;-82
2022/01/19 12:32:34;;;;;;;12.25;9.13;;;4.80;95.30;;;;;;5057097;28;20196;-83
2022/01/19 12:35:10;;;;;;;15.70;9.20;;;;;;;;;;5055352;28;20261;-82
2022/01/19 12:37:40;;;;;;;17.92;9.05;;;4.70;98.60;;;;;;5058860;28;20211;-83
2022/01/19 12:40:27;;;;;;;16.83;10.50;;;;;;;;;;5061011;28;20203;-82
2022/01/19 12:42:56;;;;;;;12.27;9.18;;;4.70;98.60;;;;;;5059023;28;20614;-82
2022/01/19 12:45:26;;;;;;;11.32;8.18;;;4.70;98.60;;;;;;5056739;28;20745;-82
2022/01/19 12:47:54;;;;;;;15.55;8.82;;;;;;;;;;5057910;28;20239;-83
2022/01/19 12:50:39;;;;;;;19.38;10.35;;;;;;;;;;5060363;28;20203;-83
2022/01/19 12:53:10;;;;;;;14.43;9.75;;;4.50;99.90;;;;;;5061162;28;20277;-82
2022/01/19 12:55:43;;;;;;;17.17;10.18;;;4.50;99.90;;;;;;5054262;28;20213;-82
2022/01/19 12:58:13;;;;;;;15.32;10.20;;;6.30;99.90;;;;;;5057551;28;20207;-82
2022/01/19 13:00:41;;;;;;;17.85;10.55;;;4.20;97.60;;;;;;5058294;28;20207;-83
2022/01/19 13:03:18;;;;;;;12.05;8.80;;;4.70;99.10;;;;;;5057255;28;20207;-83
2022/01/19 13:05:47;;;;;;;15.38;9.15;;;4.70;98.90;;;;;;5054720;28;20273;-82
2022/01/19 13:08:25;;;;;;;14.15;9.45;;;4.60;98.40;;;;;;5059056;28;20253;-82
2022/01/19 13:11:00;;;;;;;16.85;9.25;;;4.60;99.10;;;;;;5060687;28;20573;-83
2022/01/19 13:13:28;;;;;;;12.27;10.25;;;;;;;;;;5057966;28;20680;-83
2022/01/19 13:15:57;;;;;;;12.68;9.07;;;4.60;98.40;;;;;;5058359;28;20212;-83
2022/01/19 13:18:32;;;;;;;14.18;9.23;;;4.80;96.80;;;;;;5058232;28;20669;-83
2022/01/19 13:21:03;;;;;;;13.07;8.57;;;4.90;99.30;;;;;;5052926;28;20614;-83
2022/01/19 13:23:31;;;;;;;13.35;9.25;;;5.00;99.50;;;;;;5059480;28;20211;-83
2022/01/19 13:26:02;;;;;;;10.70;9.32;;;5.00;99.20;;;;;;5056907;28;20617;-83
2022/01/19 13:28:31;;;;;;;9.80;8.10;;;4.60;98.40;;;;;;5057858;28;20645;-83
2022/01/19 13:31:10;;;;;;;10.90;8.50;;;5.00;99.20;;;;;;5059719;28;20268;-83
2022/01/19 13:33:38;;;;;;;11.50;8.07;;;;;;;;;;5055588;28;20269;-83
2022/01/19 13:36:05;;;;;;;9.75;7.78;;;;;;;;;;5057574;28;20231;-83
2022/01/19 13:38:32;;;;;;;12.35;8.60;;;;;;;;;;5058150;28;20204;-83
2022/01/19 13:41:05;;;;;;;9.25;7.32;;;;;;;;;;5057336;28;20807;-83
2022/01/19 13:43:34;;;;;;;10.60;7.20;;;4.90;97.90;;;;;;5052522;28;20203;-83
2022/01/19 13:46:12;;;;;;;8.63;7.50;;;;;;;;;;5058921;28;20207;-83
2022/01/19 13:48:40;;;;;;;16.08;8.98;;;;;;;;;;5059013;28;20570;-83
2022/01/19 13:51:09;;;;;;;10.05;7.15;;;5.10;97.10;;;;;;5056738;28;20214;-83
2022/01/19 13:53:39;;;;;;;10.73;8.13;;;5.00;98.90;;;;;;5060355;28;20313;-83
2022/01/19 13:56:10;;;;;;;10.13;7.53;;;5.10;98.20;;;;;;5056034;28;20262;-84
2022/01/19 13:58:39;;;;;;;10.15;8.13;;;5.10;98.10;;;;;;5055152;28;20214;-83
2022/01/19 14:01:11;;;;;;;17.10;12.75;;;5.00;97.90;;;;;;5057337;28;20219;-82
2022/01/19 14:03:51;;;;;;;11.07;7.38;;;;;;;;;;5055504;28;20203;-83
2022/01/19 14:06:26;;;;;;;11.15;6.90;;;4.90;94.70;;;;;;5055357;28;20561;-83
2022/01/19 14:09:11;;;;;;;10.07;7.45;;;5.00;97.40;;;;;;5057252;28;20257;-83
2022/01/19 14:11:40;;;;;;;8.80;7.07;;;;;;;;;;5055452;28;20203;-83
2022/01/19 14:14:09;;;;;;;8.23;6.22;;;4.90;97.10;;;;;;5056530;28;20219;-83
2022/01/19 14:16:38;;;;;;;8.27;7.45;;;4.90;96.20;;;;;;5059815;28;20294;-82
2022/01/19 14:19:15;;;;;;;6.55;5.07;;;4.90;96.70;;;;;;5052829;28;20212;-82
2022/01/19 14:21:55;;;;;;;9.73;7.25;;;;;;;;;;5057823;28;20206;-83
2022/01/19 14:24:23;;;;;;;8.10;5.95;;;;;;;;;;5051348;28;20211;-83
2022/01/19 14:26:53;;;;;;;9.57;6.10;;;4.90;94.70;;;;;;5058798;28;20238;-83
2022/01/19 14:29:21;;;;;;;7.25;6.13;;;;;;;;;;5057738;28;20207;-83
2022/01/19 14:31:49;;;;;;;8.82;7.25;;;;;;;;;;5057464;28;20278;-83
2022/01/19 14:34:16;;;;;;;14.55;10.38;;;;;;;;;;5058107;28;20217;-83
2022/01/19 14:36:43;;;;;;;11.15;6.57;;;;;;;;;;5055862;28;20281;-83
2022/01/19 14:39:11;;;;;;;7.25;6.43;;;;;;;;;;5059773;28;20265;-83
2022/01/19 14:41:38;;;;;;;8.45;6.30;;;;;;;;;;5052142;28;20204;-83
2022/01/19 14:44:19;;;;;;;7.28;6.55;;;4.90;96.90;;;;;;5058510;28;20264;-83
2022/01/19 14:46:55;;;;;;;7.63;6.28;;;4.70;96.40;;;;;;5058502;28;20256;-83
2022/01/19 14:49:28;;;;;;;6.38;5.35;;;4.90;97.10;;;;;;5052743;28;20208;-83
2022/01/19 14:51:55;;;;;;;7.85;5.63;;;;;;;;;;5057694;28;20225;-83
2022/01/19 14:54:23;;;;;;;9.02;6.65;;;;;;;;;;5057513;28;20209;-83
2022/01/19 14:56:50;;;;;;;11.32;8.35;;;;;;;;;;5056362;28;20602;-83
2022/01/19 14:59:21;;;;;;;8.65;6.65;;;4.90;96.90;;;;;;5055961;28;20278;-83
2022/01/19 15:01:52;;;;;;;13.30;7.45;;;;;;;;;;5052026;28;20210;-83
2022/01/19 15:04:19;;;;;;;11.38;7.15;;;;;;;;;;5056453;28;20261;-83
2022/01/19 15:06:48;;;;;;;7.65;5.15;;;;;;;;;;5057521;28;20622;-83
2022/01/19 15:09:16;;;;;;;9.00;7.05;;;;;;;;;;5059300;28;20635;-83
2022/01/19 15:11:44;;;;;;;9.23;6.50;;;4.80;95.90;;;;;;5059220;28;20239;-83
2022/01/19 15:14:14;;;;;;;15.73;7.43;;;;;;;;;;5061577;28;20780;-83
2022/01/19 15:16:43;;;;;;;10.88;6.88;;;;;;;;;;5055763;28;21015;-82
2022/01/19 15:19:10;;;;;;;9.50;6.40;;;;;;;;;;5062011;28;20257;-83
2022/01/19 15:21:37;;;;;;;8.75;6.45;;;;;;;;;;5060463;28;20204;-83
2022/01/19 15:24:05;;;;;;;9.23;7.00;;;4.70;97.40;;;;;;5060349;28;20219;-83